sensor_id;sensor_type;location;lat;lon;timestamp;pressure;altitude;pressure_sealevel;temperature;humidity
68075;BME280;54864;52.002;5.468;2024-01-10T00:00:00;103032.84;;;-1.50;44.06
68075;BME280;54864;52.002;5.468;2024-01-10T00:01:01;103033.25;;;-1.62;44.84
68075;BME280;54864;52.002;5.468;2024-01-10T00:02:03;103029.56;;;-1.46;44.19
68075;BME280;54864;52.002;5.468;2024-01-10T00:03:03;103028.03;;;-1.41;44.00
68075;BME280;54864;52.002;5.468;2024-01-10T00:04:05;103028.88;;;-1.42;44.32
68075;BME280;54864;52.002;5.468;2024-01-10T00:05:17;103030.72;;;-1.60;44.50
68075;BME280;54864;52.002;5.468;2024-01-10T00:06:19;103026.09;;;-1.46;44.78
68075;BME280;54864;52.002;5.468;2024-01-10T00:07:19;103029.97;;;-1.35;44.50
68075;BME280;54864;52.002;5.468;2024-01-10T00:08:21;103019.16;;;-1.47;44.82
68075;BME280;54864;52.002;5.468;2024-01-10T00:09:27;103024.78;;;-1.57;44.93
68075;BME280;54864;52.002;5.468;2024-01-10T00:10:28;103024.50;;;-1.65;45.25
68075;BME280;54864;52.002;5.468;2024-01-10T00:11:29;103012.84;;;-1.76;45.41
68075;BME280;54864;52.002;5.468;2024-01-10T00:12:32;103014.91;;;-1.68;45.29
68075;BME280;54864;52.002;5.468;2024-01-10T00:13:36;103017.63;;;-1.85;45.86
68075;BME280;54864;52.002;5.468;2024-01-10T00:14:57;103013.72;;;-1.76;45.93
68075;BME280;54864;52.002;5.468;2024-01-10T00:15:57;103012.53;;;-1.84;46.03
68075;BME280;54864;52.002;5.468;2024-01-10T00:17:00;103021.41;;;-1.77;46.20
68075;BME280;54864;52.002;5.468;2024-01-10T00:18:00;103026.34;;;-1.83;46.54
68075;BME280;54864;52.002;5.468;2024-01-10T00:19:02;103018.00;;;-1.76;46.16
68075;BME280;54864;52.002;5.468;2024-01-10T00:20:03;103016.75;;;-1.86;45.99
68075;BME280;54864;52.002;5.468;2024-01-10T00:21:05;103017.38;;;-1.92;46.45
68075;BME280;54864;52.002;5.468;2024-01-10T00:22:05;103019.47;;;-1.83;46.55
68075;BME280;54864;52.002;5.468;2024-01-10T00:23:07;103016.88;;;-1.83;46.31
68075;BME280;54864;52.002;5.468;2024-01-10T00:24:07;103011.53;;;-1.87;47.03
68075;BME280;54864;52.002;5.468;2024-01-10T00:25:09;103015.13;;;-1.84;47.15
68075;BME280;54864;52.002;5.468;2024-01-10T00:26:09;103018.94;;;-1.74;46.86
68075;BME280;54864;52.002;5.468;2024-01-10T00:27:11;103015.59;;;-1.72;46.52
68075;BME280;54864;52.002;5.468;2024-01-10T00:28:13;103010.81;;;-1.63;45.86
68075;BME280;54864;52.002;5.468;2024-01-10T00:29:16;103006.75;;;-1.98;46.64
68075;BME280;54864;52.002;5.468;2024-01-10T00:30:17;103011.59;;;-1.86;46.54
68075;BME280;54864;52.002;5.468;2024-01-10T00:31:18;103013.09;;;-1.91;46.99
68075;BME280;54864;52.002;5.468;2024-01-10T00:32:19;103015.81;;;-1.88;47.13
68075;BME280;54864;52.002;5.468;2024-01-10T00:33:19;103020.47;;;-1.79;46.65
68075;BME280;54864;52.002;5.468;2024-01-10T00:34:21;103010.88;;;-1.82;46.65
68075;BME280;54864;52.002;5.468;2024-01-10T00:35:21;103014.16;;;-1.86;46.83
68075;BME280;54864;52.002;5.468;2024-01-10T00:36:23;103014.28;;;-1.83;47.10
68075;BME280;54864;52.002;5.468;2024-01-10T00:37:24;103011.47;;;-1.89;46.93
68075;BME280;54864;52.002;5.468;2024-01-10T00:38:25;103017.94;;;-1.78;46.77
68075;BME280;54864;52.002;5.468;2024-01-10T00:39:44;103014.59;;;-1.75;47.31
68075;BME280;54864;52.002;5.468;2024-01-10T00:40:46;103014.53;;;-1.77;47.19
68075;BME280;54864;52.002;5.468;2024-01-10T00:41:46;103013.91;;;-1.71;47.12
68075;BME280;54864;52.002;5.468;2024-01-10T00:42:48;103010.50;;;-1.91;46.86
68075;BME280;54864;52.002;5.468;2024-01-10T00:43:50;103000.13;;;-1.93;47.36
68075;BME280;54864;52.002;5.468;2024-01-10T00:44:51;103001.25;;;-1.86;47.19
68075;BME280;54864;52.002;5.468;2024-01-10T00:45:52;103002.75;;;-1.91;46.91
68075;BME280;54864;52.002;5.468;2024-01-10T00:46:54;103009.81;;;-1.87;46.94
68075;BME280;54864;52.002;5.468;2024-01-10T00:47:54;103003.00;;;-1.85;47.25
68075;BME280;54864;52.002;5.468;2024-01-10T00:48:56;103000.19;;;-1.91;47.63
68075;BME280;54864;52.002;5.468;2024-01-10T00:49:56;103000.41;;;-1.85;47.38
68075;BME280;54864;52.002;5.468;2024-01-10T00:50:57;103001.88;;;-1.92;47.45
68075;BME280;54864;52.002;5.468;2024-01-10T00:51:58;102996.91;;;-1.87;47.22
68075;BME280;54864;52.002;5.468;2024-01-10T00:52:59;103001.25;;;-1.86;47.43
68075;BME280;54864;52.002;5.468;2024-01-10T00:54:00;102990.06;;;-2.06;48.29
68075;BME280;54864;52.002;5.468;2024-01-10T00:55:16;102987.31;;;-1.89;47.77
68075;BME280;54864;52.002;5.468;2024-01-10T00:56:17;102981.31;;;-1.88;47.82
68075;BME280;54864;52.002;5.468;2024-01-10T00:57:18;102973.09;;;-1.99;48.56
68075;BME280;54864;52.002;5.468;2024-01-10T00:58:19;102969.97;;;-2.13;49.03
68075;BME280;54864;52.002;5.468;2024-01-10T00:59:21;102965.63;;;-2.14;49.44
68075;BME280;54864;52.002;5.468;2024-01-10T01:00:41;102964.53;;;-2.19;49.28
68075;BME280;54864;52.002;5.468;2024-01-10T01:01:42;102953.25;;;-2.21;49.74
68075;BME280;54864;52.002;5.468;2024-01-10T01:02:43;102962.91;;;-2.17;49.55
68075;BME280;54864;52.002;5.468;2024-01-10T01:03:44;102958.81;;;-2.33;50.29
68075;BME280;54864;52.002;5.468;2024-01-10T01:05:04;102956.28;;;-2.52;50.49
68075;BME280;54864;52.002;5.468;2024-01-10T01:06:04;102948.19;;;-2.79;51.03
68075;BME280;54864;52.002;5.468;2024-01-10T01:07:06;102956.13;;;-2.74;51.04
68075;BME280;54864;52.002;5.468;2024-01-10T01:08:06;102953.16;;;-2.83;51.47
68075;BME280;54864;52.002;5.468;2024-01-10T01:09:08;102960.16;;;-3.00;51.46
68075;BME280;54864;52.002;5.468;2024-01-10T01:10:08;102953.66;;;-2.92;51.90
68075;BME280;54864;52.002;5.468;2024-01-10T01:11:10;102956.50;;;-2.86;51.97
68075;BME280;54864;52.002;5.468;2024-01-10T01:12:10;102949.56;;;-2.87;51.79
68075;BME280;54864;52.002;5.468;2024-01-10T01:13:12;102947.06;;;-3.24;52.32
68075;BME280;54864;52.002;5.468;2024-01-10T01:14:12;102955.69;;;-3.24;52.85
68075;BME280;54864;52.002;5.468;2024-01-10T01:15:33;102971.09;;;-3.06;52.56
68075;BME280;54864;52.002;5.468;2024-01-10T01:16:34;102956.72;;;-3.01;52.22
68075;BME280;54864;52.002;5.468;2024-01-10T01:17:35;102968.78;;;-3.00;52.08
68075;BME280;54864;52.002;5.468;2024-01-10T01:18:35;102962.47;;;-2.87;52.09
68075;BME280;54864;52.002;5.468;2024-01-10T01:19:55;102965.72;;;-2.72;51.64
68075;BME280;54864;52.002;5.468;2024-01-10T01:20:56;102965.91;;;-2.67;51.18
68075;BME280;54864;52.002;5.468;2024-01-10T01:21:57;102958.91;;;-2.70;51.22
68075;BME280;54864;52.002;5.468;2024-01-10T01:22:58;102966.34;;;-2.77;51.65
68075;BME280;54864;52.002;5.468;2024-01-10T01:23:59;102962.19;;;-2.93;51.87
68075;BME280;54864;52.002;5.468;2024-01-10T01:25:19;102962.75;;;-2.81;52.09
68075;BME280;54864;52.002;5.468;2024-01-10T01:26:32;102968.03;;;-2.78;51.71
68075;BME280;54864;52.002;5.468;2024-01-10T01:27:32;102961.31;;;-2.74;51.63
68075;BME280;54864;52.002;5.468;2024-01-10T01:28:34;102956.56;;;-2.84;52.42
68075;BME280;54864;52.002;5.468;2024-01-10T01:29:35;102960.63;;;-3.09;52.53
68075;BME280;54864;52.002;5.468;2024-01-10T01:30:38;102958.41;;;-3.01;52.78
68075;BME280;54864;52.002;5.468;2024-01-10T01:31:39;102954.78;;;-2.66;52.11
68075;BME280;54864;52.002;5.468;2024-01-10T01:32:41;102954.13;;;-2.81;52.02
68075;BME280;54864;52.002;5.468;2024-01-10T01:33:41;102965.25;;;-3.02;52.87
68075;BME280;54864;52.002;5.468;2024-01-10T01:34:51;102963.97;;;-3.11;52.97
68075;BME280;54864;52.002;5.468;2024-01-10T01:35:52;102961.94;;;-2.99;52.93
68075;BME280;54864;52.002;5.468;2024-01-10T01:36:54;102959.47;;;-3.15;53.28
68075;BME280;54864;52.002;5.468;2024-01-10T01:37:55;102966.81;;;-2.86;53.16
68075;BME280;54864;52.002;5.468;2024-01-10T01:38:57;102961.59;;;-3.07;52.88
68075;BME280;54864;52.002;5.468;2024-01-10T01:40:08;102965.53;;;-3.15;53.30
68075;BME280;54864;52.002;5.468;2024-01-10T01:41:09;102960.16;;;-2.81;53.05
68075;BME280;54864;52.002;5.468;2024-01-10T01:42:10;102963.81;;;-2.76;52.71
68075;BME280;54864;52.002;5.468;2024-01-10T01:43:18;102962.72;;;-2.62;52.42
68075;BME280;54864;52.002;5.468;2024-01-10T01:44:19;102960.00;;;-2.65;52.42
68075;BME280;54864;52.002;5.468;2024-01-10T01:45:21;102967.63;;;-2.68;52.38
68075;BME280;54864;52.002;5.468;2024-01-10T01:46:23;102961.31;;;-2.74;52.47
68075;BME280;54864;52.002;5.468;2024-01-10T01:47:25;102967.16;;;-2.98;53.02
68075;BME280;54864;52.002;5.468;2024-01-10T01:48:27;102960.16;;;-3.00;53.46
68075;BME280;54864;52.002;5.468;2024-01-10T01:49:28;102950.13;;;-3.13;53.60
68075;BME280;54864;52.002;5.468;2024-01-10T01:50:48;102962.19;;;-3.49;54.58
68075;BME280;54864;52.002;5.468;2024-01-10T01:51:50;102956.25;;;-3.29;54.46
68075;BME280;54864;52.002;5.468;2024-01-10T01:52:51;102952.84;;;-3.28;54.47
68075;BME280;54864;52.002;5.468;2024-01-10T01:53:53;102953.75;;;-3.28;54.60
68075;BME280;54864;52.002;5.468;2024-01-10T01:55:13;102947.19;;;-3.21;54.49
68075;BME280;54864;52.002;5.468;2024-01-10T01:56:15;102943.13;;;-2.97;54.01
68075;BME280;54864;52.002;5.468;2024-01-10T01:57:16;102942.50;;;-2.91;53.84
68075;BME280;54864;52.002;5.468;2024-01-10T01:58:17;102938.44;;;-3.05;53.63
68075;BME280;54864;52.002;5.468;2024-01-10T01:59:18;102935.97;;;-2.83;53.39
68075;BME280;54864;52.002;5.468;2024-01-10T02:00:20;102931.31;;;-2.92;53.70
68075;BME280;54864;52.002;5.468;2024-01-10T02:01:21;102938.00;;;-2.76;53.34
68075;BME280;54864;52.002;5.468;2024-01-10T02:02:24;102938.47;;;-2.65;52.92
68075;BME280;54864;52.002;5.468;2024-01-10T02:03:25;102937.75;;;-2.82;53.27
68075;BME280;54864;52.002;5.468;2024-01-10T02:04:27;102931.00;;;-2.78;53.32
68075;BME280;54864;52.002;5.468;2024-01-10T02:05:28;102927.56;;;-2.79;53.07
68075;BME280;54864;52.002;5.468;2024-01-10T02:06:30;102929.59;;;-2.91;53.34
68075;BME280;54864;52.002;5.468;2024-01-10T02:07:30;102940.28;;;-3.03;53.92
68075;BME280;54864;52.002;5.468;2024-01-10T02:08:32;102936.47;;;-2.92;53.85
68075;BME280;54864;52.002;5.468;2024-01-10T02:09:33;102947.31;;;-2.79;53.60
68075;BME280;54864;52.002;5.468;2024-01-10T02:10:35;102942.38;;;-2.94;53.71
68075;BME280;54864;52.002;5.468;2024-01-10T02:11:35;102933.56;;;-2.99;54.05
68075;BME280;54864;52.002;5.468;2024-01-10T02:12:36;102932.13;;;-2.93;54.00
68075;BME280;54864;52.002;5.468;2024-01-10T02:13:37;102941.63;;;-3.11;53.95
68075;BME280;54864;52.002;5.468;2024-01-10T02:14:38;102943.81;;;-3.20;54.37
68075;BME280;54864;52.002;5.468;2024-01-10T02:15:39;102943.25;;;-3.13;54.38
68075;BME280;54864;52.002;5.468;2024-01-10T02:16:40;102942.50;;;-3.10;54.51
68075;BME280;54864;52.002;5.468;2024-01-10T02:17:42;102946.94;;;-3.08;54.53
68075;BME280;54864;52.002;5.468;2024-01-10T02:18:43;102943.00;;;-3.00;54.47
68075;BME280;54864;52.002;5.468;2024-01-10T02:19:44;102943.59;;;-2.86;53.78
68075;BME280;54864;52.002;5.468;2024-01-10T02:20:45;102942.03;;;-3.02;54.15
68075;BME280;54864;52.002;5.468;2024-01-10T02:21:46;102947.06;;;-3.05;54.22
68075;BME280;54864;52.002;5.468;2024-01-10T02:22:47;102949.03;;;-2.80;53.78
68075;BME280;54864;52.002;5.468;2024-01-10T02:23:50;102945.94;;;-2.71;53.66
68075;BME280;54864;52.002;5.468;2024-01-10T02:24:53;102943.75;;;-2.62;53.08
68075;BME280;54864;52.002;5.468;2024-01-10T02:25:54;102943.25;;;-2.74;53.48
68075;BME280;54864;52.002;5.468;2024-01-10T02:26:56;102940.53;;;-2.77;53.69
68075;BME280;54864;52.002;5.468;2024-01-10T02:27:57;102938.69;;;-2.80;53.56
68075;BME280;54864;52.002;5.468;2024-01-10T02:28:58;102943.91;;;-2.78;53.56
68075;BME280;54864;52.002;5.468;2024-01-10T02:30:02;102942.78;;;-2.85;53.91
68075;BME280;54864;52.002;5.468;2024-01-10T02:31:04;102931.59;;;-2.65;53.39
68075;BME280;54864;52.002;5.468;2024-01-10T02:32:04;102941.47;;;-2.75;52.92
68075;BME280;54864;52.002;5.468;2024-01-10T02:33:06;102940.91;;;-2.68;53.44
68075;BME280;54864;52.002;5.468;2024-01-10T02:34:07;102935.00;;;-2.66;53.27
68075;BME280;54864;52.002;5.468;2024-01-10T02:35:09;102937.78;;;-2.61;53.04
68075;BME280;54864;52.002;5.468;2024-01-10T02:36:09;102940.97;;;-2.67;53.12
68075;BME280;54864;52.002;5.468;2024-01-10T02:37:11;102930.66;;;-2.67;53.18
68075;BME280;54864;52.002;5.468;2024-01-10T02:38:11;102932.72;;;-2.79;53.36
68075;BME280;54864;52.002;5.468;2024-01-10T02:39:13;102937.19;;;-2.75;53.56
68075;BME280;54864;52.002;5.468;2024-01-10T02:40:15;102932.97;;;-2.73;53.27
68075;BME280;54864;52.002;5.468;2024-01-10T02:41:17;102930.69;;;-2.86;54.07
68075;BME280;54864;52.002;5.468;2024-01-10T02:42:18;102930.47;;;-2.71;53.67
68075;BME280;54864;52.002;5.468;2024-01-10T02:43:18;102926.72;;;-2.59;53.55
68075;BME280;54864;52.002;5.468;2024-01-10T02:44:20;102925.69;;;-2.62;53.71
68075;BME280;54864;52.002;5.468;2024-01-10T02:45:22;102923.75;;;-2.87;53.57
68075;BME280;54864;52.002;5.468;2024-01-10T02:46:22;102928.16;;;-2.84;54.06
68075;BME280;54864;52.002;5.468;2024-01-10T02:47:24;102933.03;;;-2.71;53.46
68075;BME280;54864;52.002;5.468;2024-01-10T02:48:24;102927.56;;;-2.60;53.25
68075;BME280;54864;52.002;5.468;2024-01-10T02:49:25;102931.84;;;-2.60;53.50
68075;BME280;54864;52.002;5.468;2024-01-10T02:50:26;102932.41;;;-2.66;53.67
68075;BME280;54864;52.002;5.468;2024-01-10T02:51:27;102927.56;;;-2.60;53.39
68075;BME280;54864;52.002;5.468;2024-01-10T02:52:30;102934.59;;;-2.56;53.51
68075;BME280;54864;52.002;5.468;2024-01-10T02:53:31;102927.31;;;-2.45;53.03
68075;BME280;54864;52.002;5.468;2024-01-10T02:54:32;102929.25;;;-2.39;52.95
68075;BME280;54864;52.002;5.468;2024-01-10T02:55:34;102933.53;;;-2.40;53.06
68075;BME280;54864;52.002;5.468;2024-01-10T02:56:36;102922.16;;;-2.45;53.59
68075;BME280;54864;52.002;5.468;2024-01-10T02:57:36;102927.31;;;-2.45;53.21
68075;BME280;54864;52.002;5.468;2024-01-10T02:58:38;102934.00;;;-2.29;52.87
68075;BME280;54864;52.002;5.468;2024-01-10T02:59:38;102928.94;;;-2.26;52.94
68075;BME280;54864;52.002;5.468;2024-01-10T03:00:40;102934.31;;;-2.21;52.54
68075;BME280;54864;52.002;5.468;2024-01-10T03:01:40;102929.38;;;-2.15;52.57
68075;BME280;54864;52.002;5.468;2024-01-10T03:02:42;102918.28;;;-2.13;51.93
68075;BME280;54864;52.002;5.468;2024-01-10T03:03:42;102924.91;;;-2.19;52.28
68075;BME280;54864;52.002;5.468;2024-01-10T03:04:44;102933.16;;;-2.28;52.29
68075;BME280;54864;52.002;5.468;2024-01-10T03:05:44;102932.59;;;-2.42;52.34
68075;BME280;54864;52.002;5.468;2024-01-10T03:06:46;102933.72;;;-2.35;52.70
68075;BME280;54864;52.002;5.468;2024-01-10T03:07:46;102934.44;;;-2.18;52.49
68075;BME280;54864;52.002;5.468;2024-01-10T03:08:48;102928.63;;;-2.34;52.71
68075;BME280;54864;52.002;5.468;2024-01-10T03:09:48;102933.41;;;-2.22;52.76
68075;BME280;54864;52.002;5.468;2024-01-10T03:10:51;102930.97;;;-2.19;52.54
68075;BME280;54864;52.002;5.468;2024-01-10T03:11:52;102928.94;;;-2.26;52.44
68075;BME280;54864;52.002;5.468;2024-01-10T03:12:53;102928.44;;;-2.17;52.18
68075;BME280;54864;52.002;5.468;2024-01-10T03:14:00;102929.88;;;-2.24;52.08
68075;BME280;54864;52.002;5.468;2024-01-10T03:15:02;102930.28;;;-2.36;52.79
68075;BME280;54864;52.002;5.468;2024-01-10T03:16:03;102928.06;;;-2.27;52.57
68075;BME280;54864;52.002;5.468;2024-01-10T03:17:04;102924.59;;;-2.27;52.39
68075;BME280;54864;52.002;5.468;2024-01-10T03:18:08;102916.84;;;-2.27;52.36
68075;BME280;54864;52.002;5.468;2024-01-10T03:19:09;102919.81;;;-2.39;53.02
68075;BME280;54864;52.002;5.468;2024-01-10T03:20:13;102922.97;;;-2.46;53.29
68075;BME280;54864;52.002;5.468;2024-01-10T03:21:13;102924.16;;;-2.38;52.98
68075;BME280;54864;52.002;5.468;2024-01-10T03:22:15;102922.00;;;-2.48;53.14
68075;BME280;54864;52.002;5.468;2024-01-10T03:23:16;102919.06;;;-2.36;53.04
68075;BME280;54864;52.002;5.468;2024-01-10T03:24:17;102926.56;;;-2.21;52.62
68075;BME280;54864;52.002;5.468;2024-01-10T03:25:24;102924.72;;;-2.24;52.28
68075;BME280;54864;52.002;5.468;2024-01-10T03:26:27;102920.13;;;-2.31;52.59
68075;BME280;54864;52.002;5.468;2024-01-10T03:27:28;102926.84;;;-2.56;53.12
68075;BME280;54864;52.002;5.468;2024-01-10T03:28:29;102924.84;;;-2.42;52.89
68075;BME280;54864;52.002;5.468;2024-01-10T03:29:30;102917.88;;;-2.44;53.06
68075;BME280;54864;52.002;5.468;2024-01-10T03:30:31;102918.50;;;-2.50;53.26
68075;BME280;54864;52.002;5.468;2024-01-10T03:31:35;102918.50;;;-2.50;53.69
68075;BME280;54864;52.002;5.468;2024-01-10T03:32:35;102918.50;;;-2.69;53.72
68075;BME280;54864;52.002;5.468;2024-01-10T03:33:37;102916.53;;;-2.56;53.46
68075;BME280;54864;52.002;5.468;2024-01-10T03:34:38;102916.25;;;-2.62;53.83
68075;BME280;54864;52.002;5.468;2024-01-10T03:35:39;102917.69;;;-2.68;53.65
68075;BME280;54864;52.002;5.468;2024-01-10T03:36:40;102916.88;;;-2.67;53.88
68075;BME280;54864;52.002;5.468;2024-01-10T03:37:42;102914.25;;;-2.88;54.09
68075;BME280;54864;52.002;5.468;2024-01-10T03:38:43;102910.56;;;-2.74;54.06
68075;BME280;54864;52.002;5.468;2024-01-10T03:39:45;102917.91;;;-2.83;53.97
68075;BME280;54864;52.002;5.468;2024-01-10T03:40:45;102915.78;;;-2.72;54.28
68075;BME280;54864;52.002;5.468;2024-01-10T03:41:48;102910.25;;;-2.61;53.91
68075;BME280;54864;52.002;5.468;2024-01-10T03:42:49;102910.03;;;-2.86;54.19
68075;BME280;54864;52.002;5.468;2024-01-10T03:43:51;102914.03;;;-2.73;54.11
68075;BME280;54864;52.002;5.468;2024-01-10T03:44:51;102911.44;;;-2.73;54.25
68075;BME280;54864;52.002;5.468;2024-01-10T03:45:53;102905.91;;;-2.62;54.04
68075;BME280;54864;52.002;5.468;2024-01-10T03:46:53;102901.31;;;-2.69;53.81
68075;BME280;54864;52.002;5.468;2024-01-10T03:47:55;102901.31;;;-2.69;54.06
68075;BME280;54864;52.002;5.468;2024-01-10T03:48:56;102901.41;;;-2.87;54.22
68075;BME280;54864;52.002;5.468;2024-01-10T03:49:56;102899.13;;;-3.19;55.47
68075;BME280;54864;52.002;5.468;2024-01-10T03:50:58;102904.84;;;-3.07;55.50
68075;BME280;54864;52.002;5.468;2024-01-10T03:51:59;102901.09;;;-2.94;55.07
68075;BME280;54864;52.002;5.468;2024-01-10T03:53:01;102898.56;;;-2.93;54.99
68075;BME280;54864;52.002;5.468;2024-01-10T03:54:02;102897.75;;;-2.92;55.04
68075;BME280;54864;52.002;5.468;2024-01-10T03:55:04;102905.72;;;-3.06;55.05
68075;BME280;54864;52.002;5.468;2024-01-10T03:56:04;102900.28;;;-2.93;55.02
68075;BME280;54864;52.002;5.468;2024-01-10T03:57:07;102902.88;;;-2.72;54.57
68075;BME280;54864;52.002;5.468;2024-01-10T03:58:08;102901.13;;;-2.73;54.20
68075;BME280;54864;52.002;5.468;2024-01-10T03:59:09;102902.88;;;-2.72;54.31
68075;BME280;54864;52.002;5.468;2024-01-10T04:00:10;102900.31;;;-2.72;54.43
68075;BME280;54864;52.002;5.468;2024-01-10T04:01:12;102900.94;;;-2.78;54.70
68075;BME280;54864;52.002;5.468;2024-01-10T04:02:13;102898.59;;;-2.72;54.38
68075;BME280;54864;52.002;5.468;2024-01-10T04:03:15;102899.19;;;-2.98;54.61
68075;BME280;54864;52.002;5.468;2024-01-10T04:04:16;102906.03;;;-2.79;54.79
68075;BME280;54864;52.002;5.468;2024-01-10T04:05:18;102903.31;;;-2.82;54.66
68075;BME280;54864;52.002;5.468;2024-01-10T04:06:19;102901.91;;;-2.95;54.86
68075;BME280;54864;52.002;5.468;2024-01-10T04:07:21;102908.94;;;-2.72;54.57
68075;BME280;54864;52.002;5.468;2024-01-10T04:08:23;102902.00;;;-2.73;54.50
68075;BME280;54864;52.002;5.468;2024-01-10T04:09:24;102896.50;;;-2.80;54.43
68075;BME280;54864;52.002;5.468;2024-01-10T04:10:31;102898.22;;;-2.81;54.60
68075;BME280;54864;52.002;5.468;2024-01-10T04:11:33;102889.34;;;-2.88;54.87
68075;BME280;54864;52.002;5.468;2024-01-10T04:12:35;102888.84;;;-2.79;54.65
68075;BME280;54864;52.002;5.468;2024-01-10T04:13:37;102890.16;;;-2.89;54.98
68075;BME280;54864;52.002;5.468;2024-01-10T04:14:39;102888.66;;;-2.83;54.90
68075;BME280;54864;52.002;5.468;2024-01-10T04:15:41;102895.53;;;-3.03;55.04
68075;BME280;54864;52.002;5.468;2024-01-10T04:16:41;102886.78;;;-3.07;55.41
68075;BME280;54864;52.002;5.468;2024-01-10T04:17:43;102882.69;;;-3.02;55.50
68075;BME280;54864;52.002;5.468;2024-01-10T04:18:46;102885.69;;;-3.12;55.84
68075;BME280;54864;52.002;5.468;2024-01-10T04:19:48;102885.63;;;-3.13;56.06
68075;BME280;54864;52.002;5.468;2024-01-10T04:20:49;102879.25;;;-3.22;55.86
68075;BME280;54864;52.002;5.468;2024-01-10T04:21:50;102880.25;;;-3.37;57.09
68075;BME280;54864;52.002;5.468;2024-01-10T04:22:51;102876.38;;;-3.28;56.65
68075;BME280;54864;52.002;5.468;2024-01-10T04:23:53;102869.69;;;-3.24;56.58
68075;BME280;54864;52.002;5.468;2024-01-10T04:24:55;102880.44;;;-3.33;57.21
68075;BME280;54864;52.002;5.468;2024-01-10T04:25:57;102875.94;;;-3.19;56.48
68075;BME280;54864;52.002;5.468;2024-01-10T04:26:57;102879.97;;;-3.43;56.77
68075;BME280;54864;52.002;5.468;2024-01-10T04:28:00;102880.50;;;-3.51;56.87
68075;BME280;54864;52.002;5.468;2024-01-10T04:29:01;102876.34;;;-3.66;57.91
68075;BME280;54864;52.002;5.468;2024-01-10T04:30:03;102882.28;;;-3.49;57.50
68075;BME280;54864;52.002;5.468;2024-01-10T04:31:03;102875.75;;;-3.41;57.41
68075;BME280;54864;52.002;5.468;2024-01-10T04:32:05;102871.56;;;-3.39;56.92
68075;BME280;54864;52.002;5.468;2024-01-10T04:33:06;102872.56;;;-3.55;57.45
68075;BME280;54864;52.002;5.468;2024-01-10T04:34:08;102875.34;;;-3.31;57.05
68075;BME280;54864;52.002;5.468;2024-01-10T04:35:08;102877.31;;;-3.26;56.71
68075;BME280;54864;52.002;5.468;2024-01-10T04:36:10;102872.72;;;-3.33;56.73
68075;BME280;54864;52.002;5.468;2024-01-10T04:37:11;102873.38;;;-3.37;57.10
68075;BME280;54864;52.002;5.468;2024-01-10T04:38:12;102871.53;;;-3.22;56.13
68075;BME280;54864;52.002;5.468;2024-01-10T04:39:14;102871.22;;;-3.28;56.91
68075;BME280;54864;52.002;5.468;2024-01-10T04:40:14;102867.38;;;-3.18;56.70
68075;BME280;54864;52.002;5.468;2024-01-10T04:41:15;102870.50;;;-3.25;56.63
68075;BME280;54864;52.002;5.468;2024-01-10T04:42:16;102873.25;;;-3.40;56.80
68075;BME280;54864;52.002;5.468;2024-01-10T04:43:18;102868.22;;;-3.37;57.10
68075;BME280;54864;52.002;5.468;2024-01-10T04:44:20;102869.31;;;-3.51;56.99
68075;BME280;54864;52.002;5.468;2024-01-10T04:45:20;102871.81;;;-3.53;57.90
68075;BME280;54864;52.002;5.468;2024-01-10T04:46:22;102869.22;;;-3.72;57.87
68075;BME280;54864;52.002;5.468;2024-01-10T04:47:22;102867.13;;;-3.80;58.56
68075;BME280;54864;52.002;5.468;2024-01-10T04:48:24;102870.38;;;-3.65;58.17
68075;BME280;54864;52.002;5.468;2024-01-10T04:49:24;102862.53;;;-3.68;58.28
68075;BME280;54864;52.002;5.468;2024-01-10T04:50:26;102868.59;;;-3.86;58.13
68075;BME280;54864;52.002;5.468;2024-01-10T04:51:26;102868.28;;;-3.92;58.60
68075;BME280;54864;52.002;5.468;2024-01-10T04:52:28;102864.97;;;-3.71;58.51
68075;BME280;54864;52.002;5.468;2024-01-10T04:53:29;102864.69;;;-3.77;58.42
68075;BME280;54864;52.002;5.468;2024-01-10T04:54:30;102870.16;;;-3.89;59.08
68075;BME280;54864;52.002;5.468;2024-01-10T04:55:31;102865.41;;;-3.80;58.88
68075;BME280;54864;52.002;5.468;2024-01-10T04:56:35;102864.81;;;-3.92;58.68
68075;BME280;54864;52.002;5.468;2024-01-10T04:57:36;102872.00;;;-3.67;58.86
68075;BME280;54864;52.002;5.468;2024-01-10T04:58:39;102877.72;;;-3.55;58.46
68075;BME280;54864;52.002;5.468;2024-01-10T04:59:40;102876.16;;;-3.52;58.71
68075;BME280;54864;52.002;5.468;2024-01-10T05:00:44;102869.44;;;-3.48;57.81
68075;BME280;54864;52.002;5.468;2024-01-10T05:01:45;102866.59;;;-3.35;57.67
68075;BME280;54864;52.002;5.468;2024-01-10T05:02:46;102865.78;;;-3.53;57.81
68075;BME280;54864;52.002;5.468;2024-01-10T05:03:47;102861.50;;;-3.53;58.01
68075;BME280;54864;52.002;5.468;2024-01-10T05:04:48;102871.19;;;-3.86;58.29
68075;BME280;54864;52.002;5.468;2024-01-10T05:05:50;102871.63;;;-3.57;58.13
68075;BME280;54864;52.002;5.468;2024-01-10T05:06:51;102868.72;;;-3.45;57.83
68075;BME280;54864;52.002;5.468;2024-01-10T05:07:52;102854.13;;;-3.45;57.29
68075;BME280;54864;52.002;5.468;2024-01-10T05:08:53;102866.41;;;-3.59;57.92
68075;BME280;54864;52.002;5.468;2024-01-10T05:09:58;102858.19;;;-3.50;57.56
68075;BME280;54864;52.002;5.468;2024-01-10T05:10:59;102863.75;;;-3.41;57.41
68075;BME280;54864;52.002;5.468;2024-01-10T05:12:00;102855.81;;;-3.45;57.44
68075;BME280;54864;52.002;5.468;2024-01-10T05:13:01;102860.69;;;-3.52;57.63
68075;BME280;54864;52.002;5.468;2024-01-10T05:14:04;102857.66;;;-3.62;58.02
68075;BME280;54864;52.002;5.468;2024-01-10T05:15:05;102853.19;;;-3.47;57.89
68075;BME280;54864;52.002;5.468;2024-01-10T05:16:06;102852.69;;;-3.38;57.58
68075;BME280;54864;52.002;5.468;2024-01-10T05:17:07;102847.00;;;-3.51;57.29
68075;BME280;54864;52.002;5.468;2024-01-10T05:18:08;102847.00;;;-3.51;57.72
68075;BME280;54864;52.002;5.468;2024-01-10T05:19:10;102842.88;;;-3.47;57.80
68075;BME280;54864;52.002;5.468;2024-01-10T05:20:12;102851.63;;;-3.43;57.55
68075;BME280;54864;52.002;5.468;2024-01-10T05:21:13;102847.00;;;-3.31;57.25
68075;BME280;54864;52.002;5.468;2024-01-10T05:22:15;102848.22;;;-3.42;57.09
68075;BME280;54864;52.002;5.468;2024-01-10T05:23:16;102847.44;;;-3.22;57.02
68075;BME280;54864;52.002;5.468;2024-01-10T05:24:18;102847.69;;;-3.16;56.60